Time;durP1;ratioP1;P1;durP2;ratioP2;P2;SDS_P1;SDS_P2;PMS_P1;PMS_P2;Temp;Humidity;BMP_temperature;BMP_pressure;BME280_temperature;BME280_humidity;BME280_pressure;Samples;Min_cycle;Max_cycle;Signal;HPM_P1;HPM_P2
2021/12/21 00:00:44;;;;;;;14.48;10.70;;;1.60;99.90;;;;;;5073610;28;20259;-70
2021/12/21 00:03:11;;;;;;;16.25;11.43;;;1.60;99.90;;;;;;5072782;28;20201;-71
2021/12/21 00:05:40;;;;;;;15.07;11.10;;;1.60;99.90;;;;;;5072923;28;20202;-71
2021/12/21 00:08:10;;;;;;;16.10;11.35;;;1.60;99.90;;;;;;5073276;28;20767;-70
2021/12/21 00:10:37;;;;;;;17.73;11.48;;;1.50;99.90;;;;;;5072911;28;20203;-70
2021/12/21 00:13:08;;;;;;;22.17;13.27;;;1.50;99.90;;;;;;5072426;28;20223;-70
2021/12/21 00:15:47;;;;;;;18.00;13.02;;;1.50;99.90;;;;;;5072919;28;20203;-71
2021/12/21 00:18:25;;;;;;;17.83;13.02;;;1.50;99.90;;;;;;5073219;28;20241;-72
2021/12/21 00:21:00;;;;;;;19.05;12.98;;;1.50;99.90;;;;;;5072798;28;20256;-69
2021/12/21 00:23:33;;;;;;;21.80;13.50;;;1.40;99.90;;;;;;5072501;28;20223;-70
2021/12/21 00:26:03;;;;;;;24.08;13.32;;;1.40;99.90;;;;;;5073000;28;20262;-70
2021/12/21 00:28:35;;;;;;;22.52;14.35;;;1.40;99.90;;;;;;5073385;28;20199;-71
2021/12/21 00:31:02;;;;;;;18.70;14.05;;;1.30;99.90;;;;;;5073073;28;20222;-71
2021/12/21 00:33:29;;;;;;;21.77;15.35;;;1.30;99.90;;;;;;5072459;28;20309;-72
2021/12/21 00:35:57;;;;;;;25.88;15.45;;;1.30;99.90;;;;;;5072973;28;20301;-72
2021/12/21 00:38:24;;;;;;;22.33;16.23;;;1.30;99.90;;;;;;5073136;28;20296;-71
2021/12/21 00:40:51;;;;;;;23.27;15.48;;;1.30;99.90;;;;;;5072366;28;20217;-70
2021/12/21 00:43:17;;;;;;;23.58;16.40;;;1.30;99.90;;;;;;5072054;28;20203;-70
2021/12/21 00:45:44;;;;;;;20.98;15.13;;;1.30;99.90;;;;;;5072335;28;20301;-70
2021/12/21 00:48:11;;;;;;;25.40;14.82;;;1.30;99.90;;;;;;5072143;28;20203;-70
2021/12/21 00:50:38;;;;;;;21.30;14.43;;;1.20;99.90;;;;;;5072692;28;20298;-69
2021/12/21 00:53:07;;;;;;;18.55;14.00;;;1.20;99.90;;;;;;5071806;28;20229;-69
2021/12/21 00:55:34;;;;;;;20.77;13.65;;;1.20;99.90;;;;;;5072258;28;20681;-70
2021/12/21 00:58:00;;;;;;;21.67;13.73;;;1.30;99.90;;;;;;5072585;28;20217;-70
2021/12/21 01:00:28;;;;;;;21.40;13.07;;;1.30;99.90;;;;;;5072260;28;20680;-70
2021/12/21 01:02:57;;;;;;;19.08;12.88;;;1.20;99.90;;;;;;5072124;28;20294;-70
2021/12/21 01:05:30;;;;;;;18.20;12.15;;;1.10;99.90;;;;;;5072280;28;20222;-70
2021/12/21 01:08:00;;;;;;;21.77;13.63;;;1.10;99.90;;;;;;5072467;28;20296;-71
2021/12/21 01:13:25;;;;;;;19.13;11.70;;;1.20;99.90;;;;;;5071686;28;20310;-71
2021/12/21 01:16:06;;;;;;;17.00;10.98;;;1.20;99.90;;;;;;5072063;28;20587;-71
2021/12/21 01:18:38;;;;;;;14.15;9.98;;;1.10;99.90;;;;;;5072346;28;20213;-71
2021/12/21 01:21:11;;;;;;;13.30;9.93;;;1.10;99.90;;;;;;5072247;28;20256;-71
2021/12/21 01:24:04;;;;;;;21.65;9.88;;;1.10;99.90;;;;;;5071826;28;20215;-71
2021/12/21 01:26:40;;;;;;;15.65;10.15;;;1.10;99.90;;;;;;5071943;28;20199;-70
2021/12/21 01:29:16;;;;;;;15.45;9.93;;;1.00;99.90;;;;;;5072177;28;20255;-71
2021/12/21 01:31:51;;;;;;;18.30;10.60;;;1.00;99.90;;;;;;5072402;28;20264;-71
2021/12/21 01:34:30;;;;;;;17.40;10.77;;;1.00;99.90;;;;;;5071635;28;20226;-71
2021/12/21 01:37:02;;;;;;;17.90;10.43;;;1.00;99.90;;;;;;5071910;28;20199;-71
2021/12/21 01:42:44;;;;;;;17.85;11.35;;;1.00;99.90;;;;;;5009727;28;20197;-72
2021/12/21 01:50:40;;;;;;;14.55;10.57;;;0.80;99.90;;;;;;5071927;28;20202;-71
2021/12/21 01:53:07;;;;;;;21.95;11.93;;;0.80;99.90;;;;;;5071551;28;20227;-71
2021/12/21 01:55:34;;;;;;;19.15;12.30;;;0.80;99.90;;;;;;5071784;28;20579;-71
2021/12/21 01:58:02;;;;;;;18.58;11.80;;;0.80;99.90;;;;;;5071871;28;20213;-72
2021/12/21 02:00:29;;;;;;;19.92;11.90;;;0.70;99.90;;;;;;5073604;28;20203;-72
2021/12/21 02:02:56;;;;;;;18.60;12.63;;;0.70;99.90;;;;;;5074883;28;20199;-71
2021/12/21 02:05:23;;;;;;;18.88;12.35;;;0.60;99.90;;;;;;5074960;28;20537;-71
2021/12/21 02:07:50;;;;;;;20.85;12.05;;;0.60;99.90;;;;;;5075469;28;20209;-72
2021/12/21 02:10:18;;;;;;;22.67;13.85;;;0.60;99.90;;;;;;5075487;28;20289;-72
2021/12/21 02:12:45;;;;;;;21.95;13.98;;;0.50;99.90;;;;;;5074901;28;20297;-72
2021/12/21 02:15:13;;;;;;;18.90;13.45;;;0.50;99.90;;;;;;5075090;28;20215;-72
2021/12/21 02:20:47;;;;;;;17.95;11.05;;;0.50;99.90;;;;;;5039088;28;20619;-72
2021/12/21 02:23:19;;;;;;;17.67;10.80;;;0.50;99.90;;;;;;5074668;28;20199;-72
2021/12/21 02:31:26;;;;;;;18.65;10.45;;;0.50;99.90;;;;;;5074730;28;20201;-72
2021/12/21 02:33:53;;;;;;;16.80;10.38;;;0.50;99.90;;;;;;5074473;28;20222;-72
2021/12/21 02:36:21;;;;;;;15.73;10.65;;;0.60;99.90;;;;;;5075348;28;20202;-71
2021/12/21 02:38:48;;;;;;;15.10;10.60;;;0.60;99.90;;;;;;5075495;28;20668;-71
2021/12/21 02:41:15;;;;;;;14.18;10.40;;;0.60;99.90;;;;;;5075693;28;20199;-71
2021/12/21 02:43:42;;;;;;;18.65;10.32;;;0.50;99.90;;;;;;5075711;28;20250;-71
2021/12/21 02:46:09;;;;;;;17.52;10.68;;;0.40;99.90;;;;;;5075575;28;20206;-71
2021/12/21 02:48:36;;;;;;;17.20;11.07;;;0.40;99.90;;;;;;5075723;28;20203;-70
2021/12/21 02:51:03;;;;;;;15.15;10.98;;;0.30;99.90;;;;;;5075572;28;20687;-70
2021/12/21 02:53:32;;;;;;;20.25;11.70;;;0.30;99.90;;;;;;5075438;28;20241;-71
2021/12/21 02:55:58;;;;;;;17.05;11.40;;;0.30;99.90;;;;;;5075352;28;20202;-71
2021/12/21 02:58:26;;;;;;;16.77;11.07;;;0.30;99.90;;;;;;5075383;28;20687;-71
2021/12/21 03:00:54;;;;;;;16.17;12.35;;;0.30;99.90;;;;;;5075309;28;20213;-71
2021/12/21 03:03:21;;;;;;;18.63;11.50;;;0.30;99.90;;;;;;5075247;28;20722;-71
2021/12/21 03:05:51;;;;;;;17.83;12.63;;;0.40;99.90;;;;;;5075190;28;20202;-71
2021/12/21 03:08:22;;;;;;;16.77;11.10;;;0.40;99.90;;;;;;5075345;28;20574;-71
2021/12/21 03:11:07;;;;;;;19.90;11.35;;;0.30;99.90;;;;;;5074933;28;20268;-71
2021/12/21 03:13:54;;;;;;;13.60;9.23;;;0.40;99.90;;;;;;5075021;28;20223;-71
2021/12/21 03:16:22;;;;;;;16.63;8.45;;;0.40;99.90;;;;;;5075021;28;20264;-70
2021/12/21 03:18:49;;;;;;;14.55;9.52;;;0.30;99.90;;;;;;5074905;28;20203;-70
2021/12/21 03:21:16;;;;;;;13.60;10.20;;;0.20;99.90;;;;;;5075025;28;20295;-71
2021/12/21 03:23:43;;;;;;;18.58;10.20;;;0.20;99.90;;;;;;5074834;28;20247;-71
2021/12/21 03:26:11;;;;;;;15.38;10.50;;;0.20;99.90;;;;;;5074466;28;20289;-71
2021/12/21 03:28:38;;;;;;;13.02;10.48;;;0.20;99.90;;;;;;5074869;28;20294;-71
2021/12/21 03:31:06;;;;;;;15.65;10.73;;;0.20;99.90;;;;;;5074841;28;20199;-70
2021/12/21 03:33:33;;;;;;;16.27;10.20;;;0.20;99.90;;;;;;5074643;28;20222;-70
2021/12/21 03:36:02;;;;;;;12.18;9.32;;;0.20;99.90;;;;;;5074573;28;20620;-71
2021/12/21 03:38:29;;;;;;;19.08;9.30;;;0.20;99.90;;;;;;5074575;28;20210;-71
2021/12/21 03:41:02;;;;;;;15.02;9.70;;;0.20;99.90;;;;;;5074599;28;20315;-71
2021/12/21 03:43:31;;;;;;;13.98;9.50;;;0.30;99.90;;;;;;5074473;28;20213;-71
2021/12/21 03:46:06;;;;;;;17.23;9.70;;;0.30;99.90;;;;;;5074387;28;20313;-71
2021/12/21 03:48:33;;;;;;;12.65;9.15;;;0.30;99.90;;;;;;5074416;28;20736;-70
2021/12/21 03:51:00;;;;;;;13.45;9.85;;;0.30;99.90;;;;;;5074438;28;20616;-70
2021/12/21 03:53:27;;;;;;;17.77;9.55;;;0.20;99.90;;;;;;5074187;28;20222;-70
2021/12/21 03:56:04;;;;;;;16.05;11.00;;;0.20;99.90;;;;;;5074181;28;20202;-71
2021/12/21 03:58:32;;;;;;;20.75;10.60;;;0.10;99.90;;;;;;5074349;28;20607;-71
2021/12/21 04:00:59;;;;;;;13.27;9.23;;;0.10;99.90;;;;;;5074212;28;20289;-71
2021/12/21 04:03:26;;;;;;;16.73;9.50;;;0.00;99.90;;;;;;5074057;28;20745;-70
2021/12/21 04:05:53;;;;;;;13.90;9.30;;;0.10;99.90;;;;;;5073973;28;20211;-71
2021/12/21 04:08:20;;;;;;;17.25;9.45;;;0.10;99.90;;;;;;5074134;28;20204;-71
2021/12/21 04:10:47;;;;;;;13.80;8.90;;;0.20;99.90;;;;;;5074113;28;20241;-71
2021/12/21 04:13:14;;;;;;;11.73;8.20;;;0.20;99.90;;;;;;5073864;28;20202;-71
2021/12/21 04:15:43;;;;;;;13.50;8.20;;;0.20;99.90;;;;;;5073897;28;20564;-70
2021/12/21 04:18:11;;;;;;;12.25;8.15;;;0.20;99.90;;;;;;5073725;28;20232;-70
2021/12/21 04:20:39;;;;;;;17.20;9.20;;;0.10;99.90;;;;;;5073894;28;20578;-70
2021/12/21 04:23:06;;;;;;;15.30;9.63;;;0.10;99.90;;;;;;5073240;28;20203;-71
2021/12/21 04:25:34;;;;;;;11.98;8.27;;;0.10;99.90;;;;;;5073697;28;20222;-71
2021/12/21 04:28:00;;;;;;;14.18;8.90;;;0.10;99.90;;;;;;5073781;28;20229;-71
2021/12/21 04:30:28;;;;;;;13.65;8.77;;;0.10;99.90;;;;;;5073644;28;20230;-71
2021/12/21 04:32:57;;;;;;;13.95;8.65;;;0.20;99.90;;;;;;5073750;28;20569;-71
2021/12/21 04:35:24;;;;;;;12.38;7.85;;;0.20;99.90;;;;;;5073462;28;20325;-71
2021/12/21 04:37:56;;;;;;;15.93;8.38;;;0.30;99.90;;;;;;5073713;28;20209;-71
2021/12/21 04:40:27;;;;;;;11.18;7.63;;;0.30;99.90;;;;;;5073459;28;20252;-71
2021/12/21 04:42:54;;;;;;;10.27;6.80;;;0.30;99.90;;;;;;5073668;28;20286;-71
2021/12/21 04:45:22;;;;;;;11.70;7.60;;;0.30;99.90;;;;;;5073429;28;20242;-70
2021/12/21 04:47:49;;;;;;;13.98;8.95;;;0.20;99.90;;;;;;5073517;28;20206;-70
2021/12/21 04:50:17;;;;;;;16.60;7.78;;;0.20;99.90;;;;;;5073599;28;20202;-71
2021/12/21 04:52:44;;;;;;;12.48;8.75;;;0.10;99.90;;;;;;5073286;28;20202;-71
2021/12/21 04:55:11;;;;;;;12.82;7.70;;;0.00;99.90;;;;;;5073529;28;20233;-71
2021/12/21 04:57:38;;;;;;;14.60;8.02;;;0.10;99.90;;;;;;5073547;28;20202;-71
2021/12/21 05:00:06;;;;;;;15.98;8.75;;;0.20;99.90;;;;;;5073429;28;20203;-70
2021/12/21 05:02:33;;;;;;;11.75;7.40;;;0.20;99.90;;;;;;5073207;28;20289;-71
2021/12/21 05:05:00;;;;;;;13.30;8.70;;;0.20;99.90;;;;;;5073280;28;20299;-70
2021/12/21 05:07:31;;;;;;;11.63;8.32;;;0.20;99.90;;;;;;5073441;28;20209;-71
2021/12/21 05:10:00;;;;;;;11.80;8.15;;;0.20;99.90;;;;;;5073339;28;20207;-71
2021/12/21 05:12:27;;;;;;;12.95;8.10;;;0.30;99.90;;;;;;5073309;28;20203;-71
2021/12/21 05:14:55;;;;;;;14.68;8.40;;;0.30;99.90;;;;;;5072954;28;20310;-71
2021/12/21 05:17:22;;;;;;;14.38;9.25;;;0.20;99.90;;;;;;5073342;28;20224;-71
2021/12/21 05:19:49;;;;;;;12.88;8.35;;;0.20;99.90;;;;;;5073310;28;20608;-71
2021/12/21 05:22:16;;;;;;;12.85;9.50;;;0.20;99.90;;;;;;5073167;28;20669;-71
2021/12/21 05:24:45;;;;;;;14.25;7.97;;;0.30;99.90;;;;;;5072875;28;20609;-71
2021/12/21 05:27:11;;;;;;;14.35;8.05;;;0.20;99.90;;;;;;5073132;28;20199;-71
2021/12/21 05:29:38;;;;;;;11.88;8.60;;;0.20;99.90;;;;;;5072930;28;20238;-71
2021/12/21 05:32:06;;;;;;;11.75;8.38;;;0.20;99.90;;;;;;5073191;28;20289;-70
2021/12/21 05:34:33;;;;;;;12.35;8.50;;;0.20;99.90;;;;;;5074928;28;20227;-71
2021/12/21 05:37:05;;;;;;;11.77;8.40;;;0.20;99.90;;;;;;5077008;28;20202;-71
2021/12/21 05:39:40;;;;;;;12.95;9.00;;;0.20;99.90;;;;;;5076680;28;20219;-71
2021/12/21 05:42:09;;;;;;;11.25;8.52;;;0.10;99.90;;;;;;5076725;28;20206;-71
2021/12/21 05:44:36;;;;;;;14.55;9.15;;;0.10;99.90;;;;;;5076380;28;20229;-70
2021/12/21 05:47:03;;;;;;;13.05;8.25;;;0.10;99.90;;;;;;5076795;28;20210;-70
2021/12/21 05:49:33;;;;;;;13.60;8.60;;;0.10;99.90;;;;;;5076428;28;20687;-71
2021/12/21 05:52:00;;;;;;;13.43;8.80;;;0.10;99.90;;;;;;5076396;28;20297;-71
2021/12/21 05:54:27;;;;;;;12.07;8.70;;;0.10;99.90;;;;;;5076342;28;20562;-71
2021/12/21 05:56:54;;;;;;;16.65;8.93;;;0.10;99.90;;;;;;5076663;28;20213;-71
2021/12/21 05:59:22;;;;;;;9.45;7.60;;;0.00;99.90;;;;;;5076611;28;20206;-71
2021/12/21 06:01:49;;;;;;;10.13;8.15;;;0.00;99.90;;;;;;5076593;28;20245;-70
2021/12/21 06:04:15;;;;;;;13.07;8.20;;;0.00;99.90;;;;;;5076243;28;20302;-71
2021/12/21 06:06:42;;;;;;;13.90;8.60;;;0.00;99.90;;;;;;5076254;28;20211;-70
2021/12/21 06:09:11;;;;;;;12.05;8.38;;;0.10;99.90;;;;;;5076419;28;20250;-71
2021/12/21 06:11:45;;;;;;;12.57;8.65;;;0.10;99.90;;;;;;5076398;28;20310;-71
2021/12/21 06:14:33;;;;;;;10.95;8.25;;;0.10;99.90;;;;;;5076272;28;20254;-71
2021/12/21 06:22:48;;;;;;;12.18;8.55;;;0.10;99.90;;;;;;5076157;28;20205;-71
2021/12/21 06:28:00;;;;;;;10.63;8.43;;;-0.20;99.90;;;;;;5075925;28;20201;-70
2021/12/21 06:30:27;;;;;;;15.05;7.07;;;-0.20;99.90;;;;;;5076034;28;20205;-70
2021/12/21 06:32:56;;;;;;;11.50;7.90;;;-0.20;99.90;;;;;;5076013;28;20199;-71
2021/12/21 06:35:23;;;;;;;11.40;8.65;;;-0.10;99.90;;;;;;5075713;28;20223;-70
2021/12/21 06:37:50;;;;;;;16.02;7.70;;;-0.10;99.90;;;;;;5075931;28;20202;-71
2021/12/21 06:40:19;;;;;;;10.32;8.25;;;-0.10;99.90;;;;;;5075559;28;20210;-71
2021/12/21 06:42:49;;;;;;;13.77;8.82;;;0.00;99.90;;;;;;5075873;28;20249;-71
2021/12/21 06:45:27;;;;;;;16.88;8.27;;;-0.10;99.90;;;;;;5074971;28;20223;-71
2021/12/21 06:53:25;;;;;;;17.50;9.27;;;-0.70;99.90;;;;;;5075462;28;20202;-70
2021/12/21 06:55:52;;;;;;;11.85;8.63;;;-0.50;99.90;;;;;;5075378;28;20309;-71
2021/12/21 06:58:18;;;;;;;15.85;9.55;;;-0.40;99.90;;;;;;5075456;28;20207;-70
2021/12/21 07:00:47;;;;;;;15.13;8.82;;;-0.40;99.90;;;;;;5075454;28;20202;-71
2021/12/21 07:03:15;;;;;;;12.38;8.90;;;-0.30;99.90;;;;;;5075078;28;20211;-71
2021/12/21 07:05:43;;;;;;;14.05;8.02;;;-0.20;99.90;;;;;;5075018;28;20202;-71
2021/12/21 07:08:15;;;;;;;11.55;7.88;;;-0.20;99.90;;;;;;5075180;28;20665;-71
2021/12/21 07:10:51;;;;;;;12.23;8.32;;;-0.10;99.90;;;;;;5075292;28;20210;-71
2021/12/21 07:18:48;;;;;;;10.60;7.78;;;0.00;99.90;;;;;;5075118;28;20205;-71
2021/12/21 07:21:15;;;;;;;12.50;7.88;;;0.00;99.90;;;;;;5074987;28;20203;-71
2021/12/21 07:23:42;;;;;;;14.65;9.02;;;-0.10;99.90;;;;;;5074957;28;20222;-71
2021/12/21 07:26:09;;;;;;;14.13;8.55;;;-0.20;99.90;;;;;;5074842;28;20199;-71
2021/12/21 07:28:36;;;;;;;9.70;7.53;;;-0.20;99.90;;;;;;5075004;28;20625;-71
2021/12/21 07:31:03;;;;;;;10.50;8.23;;;-0.10;99.90;;;;;;5074862;28;20209;-71
2021/12/21 07:33:29;;;;;;;13.10;7.63;;;-0.10;99.90;;;;;;5074708;28;20206;-71
2021/12/21 07:35:57;;;;;;;9.27;7.65;;;0.00;99.90;;;;;;5074580;28;20231;-71
2021/12/21 07:38:26;;;;;;;11.65;7.88;;;0.00;99.90;;;;;;5074633;28;20661;-71
2021/12/21 07:40:53;;;;;;;14.35;7.85;;;0.00;99.90;;;;;;5068434;28;20215;-75
2021/12/21 07:43:20;;;;;;;9.13;6.93;;;0.00;99.90;;;;;;5065069;28;20211;-70
2021/12/21 07:45:47;;;;;;;12.45;8.70;;;0.00;99.90;;;;;;5073499;28;20298;-70
2021/12/21 07:48:14;;;;;;;15.13;8.43;;;-0.10;99.90;;;;;;5073234;28;20323;-69
2021/12/21 07:50:41;;;;;;;14.10;8.20;;;-0.10;99.90;;;;;;5073099;28;20777;-70
2021/12/21 07:53:10;;;;;;;9.32;7.60;;;-0.10;99.90;;;;;;5073120;28;20621;-70
2021/12/21 07:55:37;;;;;;;14.05;9.27;;;-0.10;99.90;;;;;;5072971;28;20222;-71
2021/12/21 07:58:04;;;;;;;12.95;9.40;;;-0.10;99.90;;;;;;5072131;28;20210;-71
2021/12/21 08:00:31;;;;;;;12.75;9.43;;;-0.20;99.90;;;;;;5073334;28;20213;-69
2021/12/21 08:02:58;;;;;;;14.00;10.38;;;-0.20;99.90;;;;;;5074256;28;20203;-70
2021/12/21 08:05:30;;;;;;;15.63;11.43;;;-0.30;99.90;;;;;;5073642;28;20301;-71
2021/12/21 08:08:08;;;;;;;21.77;11.40;;;-0.30;99.90;;;;;;5073992;28;20203;-71
2021/12/21 08:10:44;;;;;;;16.90;12.38;;;-0.30;99.90;;;;;;5074188;28;20659;-71
2021/12/21 08:13:11;;;;;;;18.98;12.05;;;-0.30;99.90;;;;;;5074278;28;20232;-71
2021/12/21 08:15:37;;;;;;;18.23;11.30;;;-0.20;99.90;;;;;;5073917;28;20305;-71
2021/12/21 08:18:04;;;;;;;18.85;11.10;;;-0.10;99.90;;;;;;5073950;28;20632;-71
2021/12/21 08:20:31;;;;;;;16.70;11.02;;;0.00;99.90;;;;;;5073953;28;20285;-71
2021/12/21 08:22:58;;;;;;;17.08;10.55;;;0.10;99.90;;;;;;5073958;28;20210;-71
2021/12/21 08:25:27;;;;;;;15.45;10.05;;;0.10;99.90;;;;;;5073762;28;20549;-71
2021/12/21 08:27:57;;;;;;;15.95;9.82;;;0.20;99.90;;;;;;5073742;28;20206;-71
2021/12/21 08:30:24;;;;;;;13.52;10.40;;;0.10;99.90;;;;;;5073778;28;20203;-71
2021/12/21 08:32:51;;;;;;;13.70;10.38;;;0.00;99.90;;;;;;5073793;28;20199;-71
2021/12/21 08:35:19;;;;;;;20.73;11.05;;;-0.10;99.90;;;;;;5073277;28;20222;-71
2021/12/21 08:37:51;;;;;;;17.08;11.25;;;-0.20;99.90;;;;;;5073587;28;20679;-71
2021/12/21 08:40:18;;;;;;;14.38;10.35;;;-0.10;99.90;;;;;;5073550;28;20214;-71
2021/12/21 08:42:47;;;;;;;15.90;11.32;;;0.00;99.90;;;;;;5073697;28;20203;-71
2021/12/21 08:45:15;;;;;;;18.10;11.30;;;0.00;99.90;;;;;;5073161;28;20218;-71
2021/12/21 08:47:42;;;;;;;18.52;11.75;;;0.00;99.90;;;;;;5073647;28;20229;-71
2021/12/21 08:50:12;;;;;;;17.15;12.38;;;0.10;99.90;;;;;;5073650;28;20202;-71
2021/12/21 08:52:40;;;;;;;17.58;11.63;;;0.20;99.90;;;;;;5073579;28;20205;-71
2021/12/21 08:55:09;;;;;;;14.95;11.98;;;0.30;99.90;;;;;;5073048;28;20236;-71
2021/12/21 08:57:36;;;;;;;15.40;11.18;;;0.30;99.90;;;;;;5073224;28;20210;-71
2021/12/21 09:00:05;;;;;;;18.52;12.73;;;0.30;99.90;;;;;;5073517;28;20202;-71
2021/12/21 09:02:36;;;;;;;24.20;11.85;;;0.40;99.90;;;;;;5073470;28;20206;-71
2021/12/21 09:05:07;;;;;;;17.20;12.02;;;0.40;99.90;;;;;;5073327;28;20222;-71
2021/12/21 09:07:34;;;;;;;16.98;13.07;;;0.50;99.90;;;;;;5073468;28;20234;-71
2021/12/21 09:10:01;;;;;;;19.17;13.35;;;0.20;99.90;;;;;;5076343;28;20214;-71
2021/12/21 09:12:28;;;;;;;18.85;12.80;;;0.30;99.90;;;;;;5077596;28;20569;-71
2021/12/21 09:14:54;;;;;;;22.20;13.52;;;0.40;99.90;;;;;;5077260;28;20225;-71
2021/12/21 09:17:21;;;;;;;18.13;12.63;;;0.40;99.90;;;;;;5077346;28;20206;-71
2021/12/21 09:19:50;;;;;;;22.90;14.25;;;0.40;99.90;;;;;;5077457;28;20625;-71
2021/12/21 09:22:16;;;;;;;18.67;13.82;;;0.40;99.90;;;;;;5077385;28;20198;-71
2021/12/21 09:24:43;;;;;;;21.02;13.88;;;0.50;99.90;;;;;;5077047;28;20314;-71
2021/12/21 09:27:11;;;;;;;19.98;13.65;;;0.50;99.90;;;;;;5077276;28;20297;-71
2021/12/21 09:29:39;;;;;;;20.15;13.18;;;0.50;99.90;;;;;;5077218;28;20233;-71
2021/12/21 09:32:06;;;;;;;18.45;13.70;;;0.60;99.90;;;;;;5077182;28;20202;-71
2021/12/21 09:34:33;;;;;;;22.35;14.20;;;0.60;99.90;;;;;;5077542;28;20612;-71
2021/12/21 09:37:02;;;;;;;16.70;13.73;;;0.70;99.90;;;;;;5076958;28;20238;-71
2021/12/21 09:39:29;;;;;;;19.95;14.52;;;0.70;99.90;;;;;;5076771;28;20234;-71
2021/12/21 09:41:55;;;;;;;23.52;16.00;;;0.70;99.90;;;;;;5076798;28;20293;-71
2021/12/21 09:44:22;;;;;;;21.08;14.13;;;0.70;99.90;;;;;;5076711;28;20313;-71
2021/12/21 09:46:49;;;;;;;20.95;14.50;;;0.80;99.90;;;;;;5076578;28;20289;-71
2021/12/21 09:49:16;;;;;;;20.30;14.88;;;0.80;99.90;;;;;;5076744;28;20198;-71
2021/12/21 09:51:43;;;;;;;23.33;14.93;;;0.80;99.90;;;;;;5076724;28;20252;-71
2021/12/21 09:54:11;;;;;;;23.35;16.20;;;0.80;99.90;;;;;;5076449;28;20225;-71
2021/12/21 09:56:38;;;;;;;23.17;15.07;;;0.80;99.90;;;;;;5076230;28;20226;-71
2021/12/21 09:59:05;;;;;;;23.75;16.00;;;0.70;99.90;;;;;;5076618;28;20198;-71
2021/12/21 10:01:32;;;;;;;28.98;17.90;;;0.60;99.90;;;;;;5076308;28;20209;-71
2021/12/21 10:03:58;;;;;;;24.40;18.05;;;0.50;99.90;;;;;;5076501;28;20218;-71
2021/12/21 10:06:25;;;;;;;21.33;16.85;;;0.30;99.90;;;;;;5076369;28;20203;-71
2021/12/21 10:08:52;;;;;;;23.67;15.60;;;0.30;99.90;;;;;;5076501;28;20203;-71
2021/12/21 10:11:23;;;;;;;24.10;16.35;;;0.30;99.90;;;;;;5076470;28;20295;-71
2021/12/21 10:13:51;;;;;;;22.92;17.05;;;0.20;99.90;;;;;;5076326;28;20226;-71
2021/12/21 10:16:21;;;;;;;28.30;18.23;;;0.20;99.90;;;;;;5076107;28;20223;-71
2021/12/21 10:18:48;;;;;;;21.70;15.73;;;0.20;99.90;;;;;;5076579;28;20256;-71
2021/12/21 10:21:17;;;;;;;23.77;16.30;;;0.40;99.90;;;;;;5075174;28;20238;-71
2021/12/21 10:23:46;;;;;;;24.15;16.10;;;0.50;99.90;;;;;;5076092;28;20223;-71
2021/12/21 10:26:20;;;;;;;23.23;17.40;;;0.60;99.90;;;;;;5075987;28;20203;-71
2021/12/21 10:28:50;;;;;;;25.10;17.92;;;0.60;99.90;;;;;;5076162;28;20202;-71
2021/12/21 10:31:24;;;;;;;27.33;17.30;;;0.70;99.90;;;;;;5075943;28;20202;-71
2021/12/21 10:33:52;;;;;;;22.45;16.15;;;0.80;99.90;;;;;;5075734;28;20237;-71
2021/12/21 10:36:19;;;;;;;23.30;16.85;;;0.90;99.90;;;;;;5075755;28;20579;-71
2021/12/21 10:38:50;;;;;;;21.02;15.35;;;1.00;99.90;;;;;;5075678;28;20225;-72
2021/12/21 10:41:20;;;;;;;21.58;16.10;;;1.00;99.90;;;;;;5075925;28;20206;-71
2021/12/21 10:43:58;;;;;;;20.55;15.88;;;0.90;99.90;;;;;;5075711;28;20225;-71
2021/12/21 10:46:28;;;;;;;18.75;13.85;;;0.90;99.90;;;;;;5075448;28;20202;-71
2021/12/21 10:49:05;;;;;;;22.63;15.32;;;0.90;99.90;;;;;;5075577;28;20249;-71
2021/12/21 10:51:32;;;;;;;19.33;14.60;;;0.90;99.90;;;;;;5075729;28;20203;-71
2021/12/21 10:53:59;;;;;;;20.55;13.63;;;1.00;99.90;;;;;;5075612;28;20317;-71
2021/12/21 10:56:27;;;;;;;19.38;15.05;;;1.10;99.90;;;;;;5075403;28;20222;-71
2021/12/21 10:58:54;;;;;;;20.92;14.90;;;1.20;99.90;;;;;;5075352;28;20680;-71
2021/12/21 11:01:27;;;;;;;23.05;15.32;;;1.10;99.90;;;;;;5075553;28;20425;-71
2021/12/21 11:03:55;;;;;;;23.02;15.27;;;1.20;99.90;;;;;;5075297;28;20752;-71
2021/12/21 11:06:28;;;;;;;19.27;13.45;;;1.10;99.90;;;;;;5075223;28;20199;-71
2021/12/21 11:08:57;;;;;;;20.38;13.55;;;1.20;99.90;;;;;;5075324;28;20199;-71
2021/12/21 11:11:29;;;;;;;22.75;14.55;;;1.30;99.90;;;;;;5075298;28;20202;-71
2021/12/21 11:14:04;;;;;;;17.92;13.32;;;1.50;99.90;;;;;;5075493;28;20233;-71
2021/12/21 11:16:40;;;;;;;19.75;13.45;;;1.50;99.90;;;;;;5074880;28;20227;-71
2021/12/21 11:19:08;;;;;;;23.15;13.85;;;1.50;99.90;;;;;;5075111;28;20301;-71
2021/12/21 11:21:35;;;;;;;17.50;13.45;;;1.60;99.90;;;;;;5075101;28;20203;-71
2021/12/21 11:24:05;;;;;;;16.73;13.48;;;1.60;99.90;;;;;;5074745;28;20233;-71
2021/12/21 11:26:34;;;;;;;15.00;12.10;;;1.60;99.90;;;;;;5074792;28;20205;-71
2021/12/21 11:29:04;;;;;;;18.48;13.40;;;1.70;99.90;;;;;;5074972;28;20198;-71
2021/12/21 11:31:33;;;;;;;18.63;13.40;;;1.70;99.90;;;;;;5074703;28;20203;-71
2021/12/21 11:34:01;;;;;;;15.48;12.32;;;1.70;99.90;;;;;;5075052;28;20219;-71
2021/12/21 11:39:14;;;;;;;17.67;12.85;;;1.90;99.90;;;;;;5074621;28;20674;-71
2021/12/21 11:41:43;;;;;;;16.50;12.35;;;1.90;99.90;;;;;;5074727;28;20241;-71
2021/12/21 11:44:17;;;;;;;16.23;12.20;;;2.00;99.90;;;;;;5074582;28;20226;-71
2021/12/21 11:46:53;;;;;;;17.20;12.45;;;2.10;99.90;;;;;;5074497;28;20203;-71
2021/12/21 11:49:30;;;;;;;15.02;11.18;;;2.10;99.90;;;;;;5074380;28;20202;-71
2021/12/21 11:52:07;;;;;;;14.90;11.80;;;2.00;99.90;;;;;;5074529;28;20206;-71
2021/12/21 11:54:44;;;;;;;16.17;10.95;;;2.10;99.90;;;;;;5074050;28;20225;-71
2021/12/21 11:57:11;;;;;;;16.20;9.48;;;2.20;99.90;;;;;;5074415;28;20233;-71
2021/12/21 11:59:38;;;;;;;10.40;8.75;;;2.30;99.90;;;;;;5074204;28;20202;-71
2021/12/21 12:02:07;;;;;;;13.52;9.25;;;2.30;99.90;;;;;;5074360;28;20203;-71
2021/12/21 12:04:35;;;;;;;11.15;9.15;;;2.30;99.90;;;;;;5074019;28;20222;-71
2021/12/21 12:07:15;;;;;;;14.23;10.45;;;2.40;99.90;;;;;;5074234;28;20213;-71
2021/12/21 12:09:42;;;;;;;12.30;9.65;;;2.30;99.90;;;;;;5074214;28;20217;-71
2021/12/21 12:12:11;;;;;;;13.38;9.85;;;2.20;99.90;;;;;;5074172;28;20203;-71
2021/12/21 12:14:39;;;;;;;14.48;9.40;;;2.00;99.90;;;;;;5073893;28;20227;-71
2021/12/21 12:17:13;;;;;;;10.57;8.80;;;2.00;99.90;;;;;;5074021;28;20584;-71
2021/12/21 12:19:43;;;;;;;12.10;8.80;;;2.10;99.90;;;;;;5073993;28;20201;-71
2021/12/21 12:22:13;;;;;;;12.82;8.80;;;2.20;99.90;;;;;;5074027;28;20206;-71
2021/12/21 12:24:43;;;;;;;12.65;8.75;;;2.10;99.90;;;;;;5073762;28;20230;-71
2021/12/21 12:27:16;;;;;;;10.75;8.10;;;2.20;99.90;;;;;;5073908;28;20203;-71
2021/12/21 12:29:46;;;;;;;11.70;8.63;;;2.30;99.90;;;;;;5073820;28;20798;-71
2021/12/21 12:32:13;;;;;;;10.05;7.60;;;2.20;99.90;;;;;;5073817;28;20568;-70
2021/12/21 12:34:43;;;;;;;10.55;7.85;;;2.20;99.90;;;;;;5073684;28;20756;-71
2021/12/21 12:37:20;;;;;;;10.25;8.00;;;2.40;99.90;;;;;;5073917;28;20244;-71
2021/12/21 12:39:49;;;;;;;8.15;6.30;;;2.40;99.90;;;;;;5073462;28;20206;-71
2021/12/21 12:42:20;;;;;;;9.95;6.82;;;2.50;99.90;;;;;;5073745;28;20565;-71
2021/12/21 12:44:50;;;;;;;10.45;7.18;;;2.60;99.90;;;;;;5072767;28;20223;-71
2021/12/21 12:47:17;;;;;;;12.13;8.18;;;2.50;99.90;;;;;;5073348;28;20229;-71
2021/12/21 12:49:52;;;;;;;9.45;7.75;;;2.50;99.90;;;;;;5073627;28;20564;-71
2021/12/21 12:52:24;;;;;;;11.10;7.68;;;2.50;99.90;;;;;;5073672;28;20206;-71
2021/12/21 12:54:53;;;;;;;13.73;7.70;;;2.60;99.90;;;;;;5073201;28;20254;-71
2021/12/21 12:57:33;;;;;;;8.75;7.10;;;2.60;99.90;;;;;;5073432;28;20233;-70
2021/12/21 13:00:10;;;;;;;6.68;6.03;;;2.60;99.90;;;;;;5073396;28;20198;-71
2021/12/21 13:02:37;;;;;;;9.57;6.72;;;2.60;99.90;;;;;;5073482;28;20610;-71
2021/12/21 13:05:10;;;;;;;10.77;7.82;;;2.80;99.90;;;;;;5073280;28;20219;-71
2021/12/21 13:07:37;;;;;;;9.55;7.43;;;2.90;99.90;;;;;;5073340;28;20207;-71
2021/12/21 13:10:07;;;;;;;9.38;6.63;;;2.90;99.90;;;;;;5073668;28;20661;-70
2021/12/21 13:12:34;;;;;;;8.30;5.85;;;2.90;99.90;;;;;;5073387;28;20209;-71
2021/12/21 13:15:01;;;;;;;8.05;6.13;;;2.90;99.90;;;;;;5073216;28;20317;-70
2021/12/21 13:17:28;;;;;;;7.15;5.88;;;2.90;99.90;;;;;;5073294;28;20287;-70
2021/12/21 13:19:55;;;;;;;8.75;5.80;;;2.90;99.90;;;;;;5073282;28;20202;-70
2021/12/21 13:22:24;;;;;;;8.25;5.80;;;2.90;99.90;;;;;;5072993;28;20198;-71
2021/12/21 13:24:52;;;;;;;6.88;5.57;;;2.80;99.90;;;;;;5073127;28;20238;-70
2021/12/21 13:27:21;;;;;;;10.10;7.53;;;3.00;99.90;;;;;;5073288;28;20663;-70
2021/12/21 13:29:49;;;;;;;8.90;6.15;;;3.10;99.90;;;;;;5073266;28;20257;-71
2021/12/21 13:32:19;;;;;;;6.88;5.25;;;3.30;99.90;;;;;;5073182;28;20592;-71